Skip Navigation Links
NOAA logo - Click to go to the NOAA homepage
NOAA's National Weather Service
Alaska Aviation Weather Unit
  NWS logo - Click to go to the NWS homepage
Left Navbar Graphic     03 AKDT = 11 GMT

   
NOAA is celebrating 200 years of science, service, and stewardship. Visit the NOAA 200th celebration Web site to learn more.
USA.gov is the U.S. Government's official Web portal to all Federal, state and local government Web resources and services.
Facebook
NWS on Facebook

AAWU Home :: Display TAF Add Bookmark
TAF CYDQ 290038Z 2901/2905 16006KT P6SM SCT040 BKN080 TEMPO 2901/2904
     P6SM -SHRA BKN040
     BECMG 2901/2903 VRB03KT
    RMK FCST BASED ON AUTO OBS. NXT FCST WILL BE ISSUED AT 291245Z=

METAR CYDQ 290500Z AUTO 15003KT 9SM BKN095 03/01 A2981 RMK SLP121= METAR CYDQ 290600Z AUTO 00000KT 9SM BKN180 02/01 A2981 RMK SLP122= METAR CYDQ 290700Z AUTO 07003KT 060V130 9SM BKN190 OVC210 01/M00 A2981 RMK SLP121= METAR CYDQ 290800Z AUTO 11004KT 9SM BKN200 02/M00 A2982 RMK SLP122= METAR CYDQ 290900Z AUTO VRB03KT 9SM FEW130 BKN160 03/M00 A2981 RMK SLP120= METAR CYDQ 291000Z AUTO 06003KT 050V130 9SM CLR 02/M01 A2981 RMK SLP121= METAR CYDQ 291100Z AUTO VRB02KT 9SM CLR 02/M01 A2981 RMK SLP119=
 Alaska TAF Map

NOAA's National Weather Service
Alaska Aviation Weather Unit
6930 Sand Lake Road
Anchorage, AK 99502-1845
Disclaimer
Credits
Glossary
Privacy Policy
About Us
Career Opportunities
Contact AAWU Internet Services Site last modified: April, 17th 2012